EST,Max TemperatureF,Mean TemperatureF,Min TemperatureF,Max Dew PointF,MeanDew PointF,Min DewpointF,Max Humidity, Mean Humidity, Min Humidity, Max Sea Level PressureIn, Mean Sea Level PressureIn, Min Sea Level PressureIn, Max VisibilityMiles, Mean VisibilityMiles, Min VisibilityMiles, Max Wind SpeedMPH, Mean Wind SpeedMPH, Max Gust SpeedMPH,PrecipitationIn, CloudCover, Events, WindDirDegrees
2013-11-1,68,60,50,63,56,50,97,81,59,30.47,30.22,29.45,10,10,6,13,5,26,0.07,3,Rain,213
2013-11-2,65,52,38,48,42,38,97,73,36,30.48,30.40,30.33,10,10,10,7,1,,0.01,2,Rain,307
2013-11-3,48,40,31,46,25,10,93,58,29,31.15,30.46,28.23,10,10,10,16,10,21,0.01,5,Rain,347
2013-11-4,41,32,22,18,15,11,78,56,28,30.66,28.54,28.28,10,10,10,12,3,,0.00,0,,344
2013-11-5,48,36,23,31,25,18,85,67,41,28.56,28.46,28.33,10,10,10,9,0,,0.00,0,,150
2013-11-6,61,48,36,46,39,31,86,67,44,31.15,30.06,28.23,10,10,10,8,1,,0.04,0,,240
2013-11-7,64,52,39,56,46,25,87,74,52,30.73,30.39,29.76,10,10,6,20,5,28,0.02,5,Rain,317
2013-11-8,46,38,29,30,24,19,78,56,41,30.84,30.69,30.56,10,10,10,25,8,36,0.00,3,Rain,308
2013-11-9,43,36,30,27,21,17,67,50,35,30.98,30.89,30.78,10,10,10,12,4,20,0.00,3,,291
2013-11-10,50,43,36,41,34,27,100,69,50,30.75,30.58,30.48,10,10,6,13,2,18,0.02,3,Rain,283
2013-11-11,52,45,38,29,25,19,61,47,27,30.84,30.73,30.61,10,10,10,15,8,29,0.00,3,,290
2013-11-12,47,36,25,36,22,13,87,62,44,30.95,30.67,29.94,10,9,5,20,9,25,0.03,2,Rain-Snow,326
2013-11-13,34,28,23,14,11,7,68,50,33,31.08,31.00,30.91,10,10,10,17,6,23,0.00,0,,319
2013-11-14,52,40,28,26,20,15,75,51,31,30.88,30.84,30.79,10,10,10,12,2,16,0.00,0,,280
2013-11-15,59,42,26,25,20,13,81,52,16,30.95,30.90,30.84,10,10,10,6,1,,0.00,0,,285
2013-11-16,59,46,31,31,27,23,85,61,28,31.09,31.03,30.95,10,10,10,6,1,,0.00,2,,349
2013-11-17,46,38,29,45,39,27,100,92,79,31.09,30.70,29.94,10,6,0,6,2,,0.01,5,Fog-Rain,319
2013-11-18,63,54,44,61,47,28,100,84,37,30.56,30.00,29.53,10,5,0,12,3,25,0.16,5,Fog-Rain,212
2013-11-19,46,38,31,27,19,13,56,45,35,31.06,30.73,30.40,10,10,10,25,14,36,0.00,3,Rain,320
2013-11-20,39,30,22,14,12,9,71,48,28,31.14,28.83,28.22,10,10,10,22,12,31,0.00,0,,337
2013-11-21,46,32,17,27,18,10,84,61,22,31.13,28.49,28.22,10,10,10,7,0,,0.00,0,Snow,280
2013-11-22,42,39,36,43,39,29,100,96,73,31.11,30.50,29.82,10,4,0,0,0,,0.17,6,Fog-Rain,-1
2013-11-23,45,38,29,43,26,5,100,66,33,30.68,30.41,29.78,10,8,2,18,6,26,0.00,2,Snow,303
2013-11-24,28,24,19,12,0,-7,63,38,23,30.96,30.72,30.55,10,10,10,33,19,53,0.00,1,Snow,316
2013-11-25,32,24,16,11,-2,-14,43,33,15,31.15,31.08,30.99,10,10,10,16,9,24,0.00,0,,311
2013-11-26,36,32,28,32,24,11,96,72,42,31.10,30.79,30.09,10,7,1,6,0,,0.13,5,Rain-Snow,210
2013-11-27,53,42,32,54,44,30,100,97,76,30.77,29.76,29.25,10,3,0,20,3,30,2.08,7,Fog-Rain,316
2013-11-28,37,29,20,30,13,1,75,51,28,31.15,30.25,28.22,10,10,10,20,11,30,0.00,2,,292
2013-11-29,31,22,14,14,7,-2,78,52,25,28.59,28.42,28.27,10,10,10,14,4,18,0.25,1,,332
2013-11-30,31,20,9,19,11,5,84,64,44,28.66,28.52,28.26,10,10,10,4,0,,0.00,0,,60